Weather observations for the past three days for
Front Royal-warren County Airport
Metric (Imperial)
Date Time (edt) Wind (kph) Vis. (km) Weather Sky Cond. Temperature (ºC) Relative Humidity Wind Chill (°C) Heat Index (°C) Pressure Precipitation (cm)
Air Dwpt 6 hour altimeter (cm) sea level (mb) 1 hr 3 hr 6 hr
Max. Min.
02 18:35 NW 15 16.09 Overcast SCT075 OVC090 13 -2.2 35% 75.9 0.0
02 18:15 N 9 16.09 Overcast BKN075 OVC090 13 -1.9 36% 75.9 0.0
02 17:55 N 9 16.09 Overcast OVC075 13.1 -1 38% 75.87 0.0
02 17:35 N 9 16.09 Overcast BKN075 OVC085 13 -1.5 37% 75.87 0.0
02 17:15 N 9 16.09 Overcast OVC075 13.2 -1.4 37% 75.9 0.0
02 16:55 NW 15 16.09 Overcast BKN075 OVC080 13.5 -1.2 36% 75.9 0.0
02 16:35 NW 13 16.09 Mostly Cloudy BKN075 BKN080 13.7 -1.2 36% 75.87 0.0
02 16:15 N 6 16.09 Overcast OVC065 13.4 -1.2 37% 75.87 0.0
02 15:55 N 13 G 28 16.09 Mostly Cloudy BKN065 13.6 -0.3 39% 75.9 0.0
02 15:35 Calm 16.09 Partly Cloudy SCT075 SCT085 13.5 -0.9 37% 75.92 0.0
02 15:15 N 11 16.09 Overcast BKN075 OVC085 13.5 -0.8 38% 75.95 0.0
02 14:55 NE 9 16.09 Overcast OVC060 14 0.6 40% 75.97 0.0
02 14:35 N 13 16.09 Mostly Cloudy BKN060 12.6 -0.5 41% 76 0.0
02 14:15 NW 9 16.09 Mostly Cloudy BKN070 13.9 -0.6 37% 76 0.0
02 13:55 NW 17 16.09 Overcast OVC060 12.6 -0.8 13.1 7.6 40% 76.02 0.0
02 13:35 N 9 16.09 Overcast OVC060 12.8 -0.8 39% 76.02 0.0
02 13:15 N 11 16.09 Overcast OVC060 12.1 -0.4 42% 76.05 0.0
02 12:55 W 9 16.09 Overcast OVC060 12 -0.9 41% 76.05 0.0
02 12:35 N 17 G 26 16.09 Overcast OVC060 12.6 -0.5 41% 76.05 0.0
02 12:15 N 9 16.09 Mostly Cloudy BKN060 12.5 -0.1 42% 76.07 0.0
02 11:55 N 13 16.09 Mostly Cloudy BKN050 12.2 -0.1 43% 76.07 0.0
02 11:35 N 9 16.09 Mostly Cloudy BKN050 11.5 -0.4 44% 76.07 0.0
02 11:15 N 15 G 28 16.09 Partly Cloudy SCT050 12.2 0.2 44% 76.1 0.0
02 10:55 NW 15 16.09 Fair CLR 11.7 0 45% 76.1 0.0
02 10:35 N 9 G 26 16.09 Fair CLR 10.7 0 48% 76.1 0.0
02 10:15 NW 15 G 28 16.09 Fair CLR 10.5 0.3 50% 76.07 0.0
02 09:55 NW 15 G 30 16.09 Fair CLR 10.2 0.6 52% 76.07 0.0
02 09:35 NW 13 16.09 Fair CLR 10.1 0.5 52% 76.07 0.0
02 09:15 NW 13 16.09 Fair CLR 10.2 0.9 53% 76.07 0.0
02 08:55 NW 11 16.09 Fair CLR 9.7 1.1 55% 8 76.1 0.0
02 08:35 NW 13 16.09 Fair CLR 8.9 1 58% 7 76.1 0.0
02 08:15 NW 7 16.09 Fair CLR 7.8 0.6 61% 7 76.1 0.0
02 07:55 NW 11 16.09 Fair CLR 8 0.8 12 6.8 61% 6 76.1 0.0
02 07:35 NW 11 16.09 Fair CLR 7.4 0.7 63% 6 76.1 0.0
02 07:15 NW 11 16.09 Fair CLR 7 0.7 65% 5 76.1 0.0
02 06:55 NW 9 16.09 Fair CLR 6.8 0.7 65% 5 76.12 0.0
02 06:35 NW 11 16.09 Fair CLR 7 0.5 64% 5 76.1 0.0
02 06:15 NW 7 16.09 Fair CLR 7.1 0.7 64% 6 76.1 0.0
02 05:55 N 6 16.09 Fair CLR 7.3 1.1 65% 76.1 0.0
02 05:35 NW 13 16.09 Fair CLR 7.6 1.5 66% 6 76.07 0.0
02 05:15 NW 13 16.09 Partly Cloudy SCT085 8 1.9 66% 6 76.07 0.0
02 04:55 NW 7 16.09 Overcast OVC085 8.6 2 64% 8 76.05 0.0
02 04:35 NW 7 16.09 Overcast OVC085 9 2.4 64% 8 76.05 0.0
02 04:15 N 7 16.09 Overcast OVC085 9.1 3 66% 8 76.05 0.0
02 03:55 N 7 16.09 Mostly Cloudy BKN085 9.4 3.5 67% 9 76.02 0.0
02 03:35 N 6 16.09 Partly Cloudy SCT085 9.5 4.1 69% 76 0.0
02 03:15 Calm 16.09 Mostly Cloudy BKN085 10.1 4 66% 76 0.0
02 02:55 N 6 16.09 Overcast OVC085 11 3.7 61% 76 0.0
02 02:35 W 9 16.09 Overcast SCT050 OVC085 11.6 2.4 54% 75.97 0.0
02 02:15 W 13 16.09 Overcast OVC050 11.8 2.8 54% 76 0.0
02 01:55 NW 7 16.09 Overcast BKN050 OVC085 11.6 3.7 16.4 11.5 59% 76 0.0
02 01:35 NW 7 16.09 Overcast SCT046 SCT050 OVC085 11.8 3.6 57% 75.97 0.0
02 01:15 NW 6 16.09 Overcast BKN048 BKN060 OVC085 12.1 3.4 56% 76 0.0
02 00:55 W 9 16.09 Overcast SCT048 OVC070 12.6 3.1 53% 76 0.0
02 00:35 W 11 16.09 Overcast SCT048 OVC070 12.5 4 56% 76 0.0
02 00:15 Calm 16.09 Overcast SCT048 OVC060 12.5 5.1 61% 75.97 0.0
01 23:55 SW 6 11.27 Overcast OVC060 13 4.9 58% 75.97 0.0
01 23:35 Calm 16.09 Overcast OVC060 12.6 5.3 61% 75.95 0.0
01 23:15 Calm 16.09 Overcast OVC060 13 4.9 58% 75.95 0.0
01 22:55 N 9 16.09 Overcast BKN060 OVC070 13.1 4.7 57% 75.92 0.0
01 22:35 N 15 16.09 Overcast BKN070 BKN080 OVC090 13.7 4.2 53% 75.92 0.0
01 22:15 N 13 16.09 Overcast SCT070 BKN090 OVC110 14 4.1 52% 75.9 0.0
01 21:55 N 7 16.09 Overcast SCT070 BKN090 OVC110 14.4 5.6 56% 75.87 0.0
01 21:35 N 7 16.09 Overcast BKN080 OVC090 14.3 5.7 57% 75.84 0.0
01 21:15 W 6 16.09 Mostly Cloudy SCT080 BKN100 BKN120 13.9 5.6 58% 75.79 0.0
01 20:55 Calm 16.09 Overcast BKN080 OVC100 14.2 5.7 57% 75.74 0.0
01 20:35 N 9 16.09 Overcast SCT065 OVC080 14.1 7.4 64% 75.72 0.0
01 20:15 Calm 16.09 Overcast BKN090 OVC110 16.2 3 41% 75.67 0.0
01 19:55 Calm 16.09 Overcast OVC090 16.3 3.1 20.2 16.3 41% 75.67 0.0
01 19:35 Calm 16.09 Overcast OVC090 16.7 2.9 40% 75.67 0.0
01 19:15 Calm 16.09 Mostly Cloudy BKN100 16.7 2.9 40% 75.64 0.0
01 18:55 Calm 16.09 Partly Cloudy SCT090 17 2.9 39% 75.64 0.0
01 18:35 SE 7 16.09 Mostly Cloudy BKN090 18.5 2.9 36% 75.64 0.0
01 18:15 S 13 16.09 Overcast OVC090 18.4 2.9 36% 75.67 0.0
01 17:55 S 6 16.09 Overcast OVC090 17.9 2.5 36% 75.67 0.0
01 17:35 S 7 16.09 Overcast OVC090 18 2.1 35% 75.67 0.0
01 17:15 S 9 16.09 Overcast OVC090 18.5 2.5 35% 75.67 0.0
01 16:55 S 7 16.09 Mostly Cloudy BKN100 19.3 3 34% 75.67 0.0
01 16:35 S 9 16.09 Partly Cloudy SCT080 19.7 3.2 34% 75.67 0.0
01 16:15 SE 15 16.09 Mostly Cloudy BKN080 20.1 3.8 34% 75.72 0.0
01 15:55 SE 15 16.09 Mostly Cloudy SCT070 BKN090 19.7 3.4 34% 75.74 0.0
01 15:35 SE 13 16.09 Mostly Cloudy BKN070 19.7 4 36% 75.77 0.0
01 15:15 SE 11 16.09 Partly Cloudy SCT070 SCT080 19.2 4 37% 75.79 0.0
01 14:55 SE 7 16.09 Partly Cloudy SCT060 SCT120 18 3.6 39% 75.82 0.0
01 14:35 S 13 16.09 Mostly Cloudy SCT060 BKN120 18.3 4.7 41% 75.84 0.0
01 14:15 S 9 16.09 Partly Cloudy SCT060 17.1 3.8 41% 75.87 0.0
01 13:55 SE 11 16.09 Partly Cloudy SCT060 18.2 4.3 18.5 6.9 40% 75.87 0.0
01 13:35 S 13 16.09 Partly Cloudy SCT060 17.8 4.6 42% 75.92 0.0
01 13:15 Calm 16.09 Partly Cloudy SCT060 16.4 3.1 41% 75.92 0.0
01 12:55 SE 11 16.09 Fair CLR 17 4.1 43% 75.95 0.0
01 12:35 SE 11 16.09 Fair CLR 16.7 3.8 42% 75.97 0.0
01 12:15 SW 9 16.09 Fair CLR 16.3 4.5 46% 75.97 0.0
01 11:55 SW 9 16.09 Fair CLR 15.8 3.7 45% 76 0.0
01 11:35 S 9 16.09 Fair CLR 15 2.4 43% 76.05 0.0
01 11:15 S 7 16.09 Fair CLR 14.6 2.6 45% 76.05 0.0
01 10:55 SE 6 16.09 Fair CLR 13.9 2.7 47% 76.07 0.0
01 10:35 W 7 16.09 Fair CLR 13.6 2.8 48% 76.1 0.0
01 10:15 Calm 16.09 Fair CLR 12.8 1.9 48% 76.1 0.0
01 09:55 S 6 16.09 Fair CLR 12.2 2.7 53% 76.1 0.0
01 09:35 W 6 16.09 Fair CLR 11.4 4.3 62% 76.1 0.0
01 09:15 S 7 16.09 Fair CLR 10.5 4 64% 76.12 0.0
01 08:55 S 7 16.09 Fair CLR 9.6 5.5 76% 9 76.12 0.0
01 08:35 S 6 16.09 Fair CLR 8.8 5.1 78% 76.12 0.0
01 08:15 Calm 16.09 Fair CLR 7.8 4.5 80% 76.12 0.0
01 07:55 Calm 16.09 Fair CLR 6.7 4.6 6.7 3.3 87% 76.12 0.0
01 07:35 S 7 16.09 Fair CLR 5.5 4.4 93% 4 76.12 0.0
01 07:15 S 6 16.09 Fair CLR 5.1 3.4 89% 76.1 0.0
01 06:55 Calm 16.09 Fair CLR 4.5 3.4 93% 76.12 0.0
01 06:35 S 7 16.09 Fair CLR 4.5 3.5 93% 3 76.12 0.0
01 06:15 S 7 16.09 Fair CLR 4.3 3.5 95% 3 76.12 0.0
01 05:55 Calm 16.09 Fair CLR 4.8 3.4 91% 76.12 0.0
01 05:35 S 9 16.09 Fair CLR 4.7 3.3 91% 3 76.12 0.0
01 05:15 S 9 16.09 Fair CLR 4.4 3.3 93% 2 76.15 0.0
01 04:55 S 7 16.09 Fair CLR 4.3 3.2 93% 3 76.12 0.0
01 04:35 S 9 16.09 Fair CLR 4.3 3.1 92% 2 76.12 0.0
01 04:15 S 9 16.09 Fair CLR 4.5 3 90% 3 76.12 0.0
01 03:55 S 9 16.09 Fair CLR 4 3 93% 2 76.12 0.0
01 03:35 S 7 16.09 Fair CLR 3.7 3 95% 2 76.1 0.0
01 03:15 Calm 16.09 Fair CLR 3.4 2.8 96% 76.1 0.0
01 02:55 S 6 16.09 Fair CLR 4.3 3.3 93% 76.1 0.0
01 02:35 S 6 16.09 Fair CLR 3.9 3.1 95% 76.1 0.0
01 02:15 S 6 16.09 Fair CLR 4.1 3.3 95% 76.1 0.0
01 01:55 S 6 16.09 Fair CLR 4.4 3.4 11.8 4.1 93% 76.1 0.0
01 01:35 Calm 16.09 Fair CLR 4.4 3.2 92% 76.1 0.0
01 01:15 Calm 16.09 Fair CLR 5.4 2.9 84% 76.1 0.0
01 00:55 Calm 16.09 Fair CLR 6 2.7 80% 76.1 0.0
01 00:35 W 7 16.09 Fair CLR 5.9 2.8 81% 5 76.1 0.0
01 00:15 S 6 16.09 Fair CLR 4.5 2.8 89% 76.1 0.0
30 23:55 Calm 16.09 Fair CLR 5.3 2.9 85% 76.07 0.0
30 23:35 Calm 16.09 Fair CLR 6 2.8 80% 76.07 0.0
30 23:15 Calm 16.09 Fair CLR 7.1 2.6 73% 76.1 0.0
30 22:55 Calm 16.09 Fair CLR 7.5 2.4 70% 76.07 0.0
30 22:35 W 6 16.09 Fair CLR 7.9 2.6 69% 76.07 0.0
30 22:15 Calm 16.09 Fair CLR 8.9 1.8 61% 76.07 0.0
30 21:55 Calm 16.09 Fair CLR 9.2 1.9 61% 76.07 0.0
30 21:35 NW 6 16.09 Fair CLR 9.8 1.7 57% 76.05 0.0
30 21:15 NW 9 16.09 Mostly Cloudy BKN075 10.5 1.6 54% 76.02 0.0
30 20:55 NW 9 16.09 Overcast OVC075 11 1.7 53% 76 0.0
30 20:35 NW 11 16.09 Mostly Cloudy BKN075 11.4 2.1 53% 76 0.0
30 20:15 NW 9 16.09 Partly Cloudy SCT075 11.4 2.2 53% 75.97 0.0
30 19:55 NW 15 G 26 16.09 Partly Cloudy SCT075 11.9 2.3 18.6 11.9 52% 75.97 0.0
30 19:35 NW 17 G 28 16.09 Partly Cloudy SCT060 12.5 2.7 52% 75.95 0.0
30 19:15 W 20 G 31 16.09 Fair CLR 12.5 3.3 54% 75.9 0.0
30 18:55 NW 19 16.09 Partly Cloudy SCT049 SCT065 13.3 3.5 52% 75.9 0.0
30 18:35 NW 17 G 30 16.09 Partly Cloudy SCT049 14.2 3.7 50% 75.9 0.0
30 18:15 NW 24 G 39 16.09 Partly Cloudy SCT050 14.8 3.5 47% 75.87 0.0
30 17:55 NW 22 G 37 16.09 Partly Cloudy SCT060 14.5 3.6 48% 75.84 0.0
30 17:35 W 20 G 33 16.09 Partly Cloudy SCT060 16.1 3.5 43% 75.79 0.0
30 17:15 W 30 G 41 16.09 Partly Cloudy SCT060 SCT080 16.8 3.2 40% 75.77 0.0
30 16:55 NW 17 G 28 16.09 Mostly Cloudy BKN070 16.1 2.4 40% 75.77 0.0
30 16:35 W 22 G 33 16.09 Mostly Cloudy SCT070 BKN080 17.9 2.1 35% 75.74 0.0
30 16:15 W 15 G 30 16.09 Partly Cloudy SCT075 17.1 1.5 35% 75.72 0.0
30 15:55 W 22 G 39 16.09 Partly Cloudy SCT075 17.9 1.9 34% 75.72 0.0
30 15:35 NW 22 G 30 16.09 Partly Cloudy SCT075 18.2 1.8 34% 75.69 0.0
30 15:15 NW 20 G 41 16.09 Fair CLR 17.2 1.3 34% 75.69 0.0
30 14:55 NW 19 G 30 16.09 Fair CLR 18.5 3.4 37% 75.69 0.0
30 14:35 W 15 G 37 16.09 Fair CLR 18.2 3.2 37% 75.67 0.0
30 14:15 W 19 G 33 16.09 Partly Cloudy SCT065 17.9 3.8 39% 75.69 0.0
30 13:55 W 19 G 31 16.09 Mostly Cloudy BKN065 16.2 3.1 18 13 42% 75.69 0.0
30 13:35 NW 15 G 30 16.09 Mostly Cloudy BKN070 BKN075 16.8 4.2 43% 75.69 0.0
30 13:15 W 19 G 30 16.09 Partly Cloudy SCT060 SCT070 17 3.3 40% 75.69 0.0
30 12:55 W 17 G 30 16.09 Overcast BKN060 OVC070 15.9 3.1 43% 75.69 0.0
30 12:35 NW 15 16.09 Mostly Cloudy SCT060 BKN070 17.2 4.8 44% 75.69 0.0
30 12:15 NW 9 G 28 16.09 Mostly Cloudy SCT060 BKN070 16.5 4.1 44% 75.72 0.0
30 11:55 W 24 16.09 Mostly Cloudy SCT060 BKN070 16.5 4.9 46% 75.74 0.0
30 11:35 W 15 16.09 Mostly Cloudy BKN060 BKN070 16.7 5.2 47% 75.74 0.0
30 11:15 W 9 16.09 Overcast BKN050 OVC070 15.8 5.8 52% 75.74 0.0
30 10:55 W 13 G 30 16.09 Mostly Cloudy BKN055 15 5.5 53% 75.74 0.0
30 10:35 NW 17 16.09 Partly Cloudy SCT046 SCT065 15.5 6.3 55% 75.74 0.0
30 10:15 W 11 16.09 Partly Cloudy SCT048 SCT065 15.6 7 57% 75.77 0.0
30 09:55 NW 11 16.09 Overcast SCT038 BKN050 OVC065 15.1 7 59% 75.79 0.0
30 09:35 W 11 16.09 Overcast SCT038 BKN045 OVC055 14.2 7.7 65% 75.77 0.0
30 09:15 NW 7 16.09 Mostly Cloudy SCT045 BKN055 15.1 8.3 64% 75.74 0.0
30 08:55 NW 6 16.09 Partly Cloudy SCT060 14.7 8.9 68% 75.72 0.0
30 08:35 NW 9 16.09 Overcast OVC060 13.6 8.8 73% 75.72 0.0
30 08:15 Calm 16.09 Overcast SCT049 OVC060 13.5 9.1 75% 75.69 0.0
30 07:55 Calm 16.09 Overcast OVC049 13.1 8.9 13.5 10 76% 75.69 0.0
30 07:35 Calm 16.09 Overcast BKN044 OVC055 11.9 9.7 87% 75.69 0.0
30 07:15 Calm 16.09 Overcast BKN042 BKN049 OVC055 10.7 10.2 97% 75.67 0.0
30 06:55 Calm 16.09 Overcast SCT042 BKN050 OVC065 11.1 9.8 92% 75.67 0.0
30 06:35 Calm 16.09 Overcast BKN044 BKN055 OVC070 11.4 9.7 89% 75.67 0.0
30 06:15 Calm 16.09 Mostly Cloudy SCT047 SCT055 BKN070 12.5 8.9 79% 75.64 0.0
30 05:55 NE 7 16.09 Partly Cloudy SCT070 11.1 9.5 90% 75.62 0.0
30 05:35 Calm 16.09 Partly Cloudy SCT046 SCT070 10 9.7 98% 75.62 0.0
30 05:15 Calm 16.09 Mostly Cloudy SCT042 SCT048 BKN075 10.3 10 98% 75.62 0.0
30 04:55 Calm 16.09 Mostly Cloudy BKN075 10.9 10.4 97% 75.62 0.0
30 04:35 Calm 16.09 Overcast OVC065 11.5 10.4 93% 75.62 0.0
30 04:15 Calm 16.09 Overcast OVC065 11.4 10.7 96% 75.62 0.0
30 03:55 NW 7 16.09 Overcast SCT065 OVC080 11.6 10.5 93% 75.62 0.0
30 03:35 Calm 16.09 Overcast OVC080 12.4 10.3 87% 75.62 0.0
30 03:15 N 6 16.09 Mostly Cloudy BKN080 12.5 10.4 87% 75.59 0.0
30 02:55 NW 6 16.09 Fair CLR 12.3 10.6 89% 75.59 0.0
30 02:35 Calm 16.09 Fair CLR 12.8 10.5 86% 75.57 0.0
30 02:15 NW 6 16.09 Fair CLR 13.3 10.5 83% 75.57 0.0
30 01:55 W 6 16.09 Fair CLR 12.6 11.4 15.7 11.8 92% 75.59 0.0 0.53
30 01:35 Calm 16.09 Fair CLR 12.1 11.6 97% 75.57 0.0
30 01:15 Calm 16.09 Fair CLR 11.8 11.4 97% 75.59 0.0
30 00:55 Calm 16.09 Fair CLR 12.4 12.1 98% 75.59 0.0
30 00:35 W 6 16.09 Fair CLR 13.3 11.7 90% 75.57 0.0
30 00:15 W 6 16.09 Fair CLR 13.5 12.5 94% 75.54 0.0
29 23:55 W 6 16.09 Partly Cloudy SCT095 13.4 13 97% 75.54 0.0
29 23:35 W 6 2.01 Fog/Mist SCT002 OVC085 13.7 13.5 99% 75.57 0.0
29 23:15 Calm 6.44 Fog/Mist BKN085 13.9 13.6 98% 75.57 0.0
29 22:55 S 6 16.09 Mostly Cloudy BKN075 14.5 14.3 99% 75.57 0.0 0.03 0.53
29 22:35 Calm 4.83 Fog/Mist SCT038 SCT085 BKN110 14.6 14.3 98% 75.57 0.0 0.03
29 22:15 S 6 16.09 Overcast SCT032 BKN080 OVC110 15.1 14.8 98% 75.57 0.0 0.03
29 21:55 Calm 16.09 Light Rain OVC070 15.6 15.1 97% 75.59 0.0
29 21:35 Calm 16.09 Overcast OVC070 15.5 15 97% 75.57 0.0
29 21:15 Calm 16.09 Overcast SCT022 SCT050 OVC070 15.5 15 97% 75.54 0.0
29 20:55 Calm 16.09 Overcast BKN024 BKN036 OVC065 15.6 15 96% 75.54 0.0 0.51
29 20:35 SW 11 4.83 Heavy Rain SCT012 BKN028 OVC055 15.4 15 97% 75.49 0.0 0.48
29 20:15 Calm 16.09 Rain SCT012 BKN027 OVC049 15.5 15 97% 75.46 0.0 0.03
29 19:55 NW 6 16.09 Light Rain SCT016 BKN050 OVC110 15.6 15 16.5 14.5 96% 75.44 0.0 0.76
29 19:35 Calm 16.09 Light Rain SCT024 BKN047 OVC085 15.5 14.7 95% 75.41 0.0
29 19:15 Calm 16.09 Overcast SCT013 BKN048 OVC095 15.5 14.7 95% 75.44 0.0
29 18:55 S 6 16.09 Mostly Cloudy SCT055 BKN100 BKN120 15.7 14.6 93% 75.44 0.0
Date Time (edt) Wind (kph) Vis. (km) Weather Sky Cond. Air Dwpt Max. Min. Relative Humidity Wind Chill (°C) Heat Index (°C) altimeter (cm) sea level (mb) 1 hr 3 hr 6 hr
6 hour
Temperature (ºC) Pressure Precipitation (cm)